createdAt,value
2023-05-06T00:00:33.064Z,11.57
2023-05-06T00:03:01.761Z,20.10
2023-05-06T00:05:30.366Z,20.67
2023-05-06T00:07:58.930Z,18.50
2023-05-06T00:10:27.556Z,17.67
2023-05-06T00:12:56.108Z,21.93
2023-05-06T00:15:24.660Z,21.23
2023-05-06T00:17:55.573Z,21.90
2023-05-06T00:20:24.631Z,17.77
2023-05-06T00:22:53.233Z,18.10
2023-05-06T00:25:21.940Z,19.17
2023-05-06T00:27:50.453Z,20.47
2023-05-06T00:30:19.122Z,18.97
2023-05-06T00:32:47.630Z,20.53
2023-05-06T00:35:17.565Z,19.00
2023-05-06T00:37:47.340Z,20.37
2023-05-06T00:40:15.930Z,15.53
2023-05-06T00:42:44.443Z,23.33
2023-05-06T00:45:13.046Z,33.97
2023-05-06T00:47:43.188Z,23.07
2023-05-06T00:50:12.394Z,25.70
2023-05-06T00:52:42.668Z,19.83
2023-05-06T00:55:11.523Z,22.40
2023-05-06T00:57:41.344Z,28.73
2023-05-06T01:00:11.522Z,27.40
2023-05-06T01:02:46.916Z,23.27
2023-05-06T01:05:18.775Z,22.43
2023-05-06T01:07:57.332Z,20.90
2023-05-06T01:10:34.419Z,20.73
2023-05-06T01:13:08.178Z,28.33
2023-05-06T01:15:43.013Z,20.87
2023-05-06T01:18:14.967Z,20.57
2023-05-06T01:20:44.960Z,28.70
2023-05-06T01:23:15.711Z,33.63
2023-05-06T01:25:44.319Z,18.80
2023-05-06T01:28:13.927Z,16.73
2023-05-06T01:30:53.956Z,12.67
2023-05-06T01:33:30.542Z,17.07
2023-05-06T01:36:09.715Z,21.13
2023-05-06T01:38:46.908Z,20.07
2023-05-06T01:41:18.026Z,26.40
2023-05-06T01:43:49.155Z,20.30
2023-05-06T01:46:21.082Z,28.33
2023-05-06T01:48:53.653Z,22.20
2023-05-06T01:51:22.649Z,29.70
2023-05-06T01:53:52.625Z,23.77
2023-05-06T01:56:21.722Z,23.63
2023-05-06T01:58:50.577Z,20.80
2023-05-06T02:01:19.099Z,26.07
2023-05-06T02:03:47.931Z,19.40
2023-05-06T02:06:16.740Z,25.40
2023-05-06T02:08:46.108Z,35.87
2023-05-06T02:11:21.072Z,34.70
2023-05-06T02:13:51.761Z,33.00
2023-05-06T02:16:21.996Z,30.80
2023-05-06T02:18:51.308Z,38.10
2023-05-06T02:21:19.827Z,31.50
2023-05-06T02:23:48.527Z,34.60
2023-05-06T02:26:17.590Z,33.40
2023-05-06T02:28:47.511Z,35.57
2023-05-06T02:31:16.861Z,29.30
2023-05-06T02:33:46.665Z,29.70
2023-05-06T02:36:15.233Z,39.80
2023-05-06T02:38:43.786Z,32.70
2023-05-06T02:41:12.368Z,26.90
2023-05-06T02:43:40.957Z,32.83
2023-05-06T02:46:11.513Z,28.90
2023-05-06T02:48:40.068Z,27.57
2023-05-06T02:51:08.640Z,25.20
2023-05-06T02:53:37.158Z,26.90
2023-05-06T02:56:06.282Z,22.27
2023-05-06T02:58:34.811Z,26.83
2023-05-06T03:01:03.444Z,20.70
2023-05-06T03:03:33.806Z,32.73
2023-05-06T03:06:02.406Z,25.97
2023-05-06T03:08:31.094Z,27.13
2023-05-06T03:11:00.583Z,28.10
2023-05-06T03:13:29.197Z,34.13
2023-05-06T03:15:58.176Z,29.77
2023-05-06T03:18:26.873Z,31.03
2023-05-06T03:20:57.754Z,21.77
2023-05-06T03:23:26.777Z,22.93
2023-05-06T03:25:55.411Z,15.73
2023-05-06T03:28:24.060Z,11.87
2023-05-06T03:30:52.721Z,21.37
2023-05-06T03:33:21.286Z,16.60
2023-05-06T03:35:49.941Z,13.60
2023-05-06T03:38:19.882Z,17.13
2023-05-06T03:40:56.204Z,23.60
2023-05-06T03:43:24.796Z,17.23
2023-05-06T03:45:57.626Z,24.63
2023-05-06T03:48:26.338Z,37.53
2023-05-06T03:50:56.175Z,23.90
2023-05-06T03:53:26.876Z,31.43
2023-05-06T03:55:55.452Z,28.23
2023-05-06T03:58:24.853Z,34.83
2023-05-06T04:00:53.783Z,37.40
2023-05-06T04:03:22.443Z,35.37
2023-05-06T04:05:53.275Z,44.47
2023-05-06T04:08:27.310Z,45.90
2023-05-06T04:10:56.996Z,46.20
2023-05-06T04:13:30.711Z,40.00
2023-05-06T04:16:01.730Z,67.67
2023-05-06T04:18:40.818Z,62.43
2023-05-06T04:21:13.549Z,56.83
2023-05-06T04:23:45.979Z,64.23
2023-05-06T04:26:18.064Z,50.03
2023-05-06T04:28:48.032Z,50.37
2023-05-06T04:31:17.285Z,58.23
2023-05-06T04:33:48.326Z,59.33
2023-05-06T04:36:20.795Z,51.50
2023-05-06T04:39:10.574Z,83.77
2023-05-06T04:41:40.083Z,76.30
2023-05-06T04:44:09.359Z,194.07
2023-05-06T04:46:38.807Z,91.07
2023-05-06T04:49:07.497Z,72.83
2023-05-06T04:51:36.492Z,93.07
2023-05-06T04:54:05.433Z,89.30
2023-05-06T04:56:35.400Z,64.80
2023-05-06T04:59:03.920Z,82.40
2023-05-06T05:01:33.620Z,54.40
2023-05-06T05:04:02.190Z,49.97
2023-05-06T05:06:31.984Z,39.50
2023-05-06T05:09:01.366Z,46.40
2023-05-06T05:11:30.907Z,51.17
2023-05-06T05:14:02.527Z,51.93
2023-05-06T05:16:32.704Z,55.90
2023-05-06T05:19:03.970Z,49.63
2023-05-06T05:21:34.505Z,69.77
2023-05-06T05:24:03.077Z,40.70
2023-05-06T05:26:31.941Z,45.30
2023-05-06T05:29:03.490Z,31.50
2023-05-06T05:31:33.779Z,25.73
2023-05-06T05:34:03.109Z,25.87
2023-05-06T05:36:31.678Z,22.63
2023-05-06T05:39:02.189Z,23.07
2023-05-06T05:41:32.613Z,19.77
2023-05-06T05:44:01.192Z,24.80
2023-05-06T05:46:32.862Z,24.33
2023-05-06T05:49:02.476Z,22.97
2023-05-06T05:51:31.149Z,19.87
2023-05-06T05:54:00.716Z,19.20
2023-05-06T05:56:30.000Z,20.87
2023-05-06T05:58:58.639Z,20.17
2023-05-06T06:01:27.651Z,27.93
2023-05-06T06:03:59.432Z,22.53
2023-05-06T06:06:28.184Z,27.60
2023-05-06T06:08:57.189Z,28.50
2023-05-06T06:11:26.923Z,25.37
2023-05-06T06:13:55.953Z,28.30
2023-05-06T06:16:24.665Z,26.63
2023-05-06T06:18:54.302Z,32.93
2023-05-06T06:21:24.153Z,30.33
2023-05-06T06:23:53.221Z,28.70
2023-05-06T06:26:22.282Z,36.63
2023-05-06T06:28:50.849Z,29.83
2023-05-06T06:31:19.456Z,29.83
2023-05-06T06:33:48.011Z,30.37
2023-05-06T06:36:16.553Z,27.43
2023-05-06T06:38:46.472Z,34.00
2023-05-06T06:41:15.871Z,36.00
2023-05-06T06:43:44.411Z,26.43
2023-05-06T06:46:18.997Z,27.63
2023-05-06T06:48:47.696Z,26.17
2023-05-06T06:51:16.223Z,27.33
2023-05-06T06:53:48.267Z,30.43
2023-05-06T06:56:17.035Z,25.83
2023-05-06T06:58:45.596Z,24.93
2023-05-06T07:01:14.172Z,28.40
2023-05-06T07:03:42.800Z,27.67
2023-05-06T07:06:11.348Z,20.97
2023-05-06T07:08:39.886Z,27.37
2023-05-06T07:11:09.987Z,24.97
2023-05-06T07:13:38.616Z,22.57
2023-05-06T07:16:07.390Z,27.47
2023-05-06T07:18:35.945Z,21.67
2023-05-06T07:21:04.477Z,23.67
2023-05-06T07:23:32.987Z,22.30
2023-05-06T07:26:01.647Z,19.17
2023-05-06T07:28:31.524Z,21.50
2023-05-06T07:31:00.090Z,24.63
2023-05-06T07:33:28.756Z,21.80
2023-05-06T07:35:57.381Z,21.43
2023-05-06T07:38:25.942Z,18.63
2023-05-06T07:40:54.540Z,22.33
2023-05-06T07:43:23.639Z,22.77
2023-05-06T07:45:58.943Z,30.00
2023-05-06T07:48:27.538Z,20.07
2023-05-06T07:50:56.188Z,15.83
2023-05-06T07:53:24.771Z,17.80
2023-05-06T07:55:57.120Z,18.13
2023-05-06T07:58:25.784Z,21.30
2023-05-06T08:00:55.827Z,22.83
2023-05-06T08:03:24.526Z,20.37
2023-05-06T08:05:53.281Z,16.57
2023-05-06T08:08:22.326Z,19.00
2023-05-06T08:10:50.895Z,21.50
2023-05-06T08:13:19.521Z,17.53
2023-05-06T08:15:48.303Z,17.33
2023-05-06T08:18:22.999Z,19.63
2023-05-06T08:20:52.337Z,20.03
2023-05-06T08:23:21.830Z,20.00
2023-05-06T08:25:50.406Z,23.80
2023-05-06T08:28:18.971Z,17.57
2023-05-06T08:30:48.591Z,18.93
2023-05-06T08:33:18.726Z,18.77
2023-05-06T08:35:48.093Z,20.90
2023-05-06T08:38:16.677Z,27.73
2023-05-06T08:40:45.921Z,22.37
2023-05-06T08:43:15.437Z,22.37
2023-05-06T08:45:44.151Z,20.87
2023-05-06T08:48:13.219Z,25.47
2023-05-06T08:50:44.754Z,18.63
2023-05-06T08:53:14.543Z,18.73
2023-05-06T08:55:43.631Z,14.37
2023-05-06T08:58:15.674Z,16.70
2023-05-06T09:00:45.316Z,15.83
2023-05-06T09:03:14.029Z,17.30
2023-05-06T09:05:44.241Z,15.87
2023-05-06T09:08:12.973Z,19.17
2023-05-06T09:10:44.965Z,18.27
2023-05-06T09:13:14.811Z,15.83
2023-05-06T09:15:44.632Z,14.43
2023-05-06T09:18:13.387Z,16.00
2023-05-06T09:20:45.036Z,17.40
2023-05-06T09:23:16.091Z,18.67
2023-05-06T09:25:45.863Z,18.57
2023-05-06T09:28:15.408Z,14.90
2023-05-06T09:30:47.476Z,14.57
2023-05-06T09:33:16.234Z,12.47
2023-05-06T09:35:46.202Z,21.13
2023-05-06T09:38:14.904Z,17.35
2023-05-06T09:40:43.740Z,13.80
2023-05-06T09:43:15.572Z,13.60
2023-05-06T09:45:46.260Z,16.02
2023-05-06T09:48:16.414Z,13.48
2023-05-06T09:50:46.690Z,13.70
2023-05-06T09:53:17.936Z,16.38
2023-05-06T09:55:47.648Z,13.85
2023-05-06T09:58:17.524Z,15.93
2023-05-06T10:00:46.762Z,11.73
2023-05-06T10:03:17.522Z,15.65
2023-05-06T10:05:48.010Z,13.07
2023-05-06T10:08:19.454Z,14.57
2023-05-06T10:10:50.370Z,17.48
2023-05-06T10:13:20.497Z,15.52
2023-05-06T10:15:51.152Z,16.20
2023-05-06T10:18:21.173Z,18.65
2023-05-06T10:20:53.580Z,10.02
2023-05-06T10:23:26.510Z,8.60
2023-05-06T10:25:57.926Z,6.15
2023-05-06T10:28:31.465Z,9.80
2023-05-06T10:31:00.847Z,10.75
2023-05-06T10:33:30.394Z,11.50
2023-05-06T10:36:14.575Z,9.27
2023-05-06T10:38:45.618Z,5.73
2023-05-06T10:41:14.849Z,8.13
2023-05-06T10:43:45.394Z,14.50
2023-05-06T10:46:15.361Z,9.27
2023-05-06T10:49:17.452Z,8.73
2023-05-06T10:52:09.873Z,7.50
2023-05-06T10:54:49.503Z,6.93
2023-05-06T10:57:18.099Z,7.83
2023-05-06T10:59:47.716Z,8.80
2023-05-06T11:02:19.908Z,8.87
2023-05-06T11:04:53.135Z,8.93
2023-05-06T11:07:26.722Z,8.38
2023-05-06T11:09:56.850Z,10.77
2023-05-06T11:12:47.039Z,9.77
2023-05-06T11:15:39.663Z,10.90
2023-05-06T11:18:42.887Z,9.63
2023-05-06T11:21:39.307Z,6.93
2023-05-06T11:24:11.571Z,6.43
2023-05-06T11:26:44.098Z,7.22
2023-05-06T11:29:12.670Z,8.85
2023-05-06T11:31:43.446Z,5.85
2023-05-06T11:34:14.710Z,7.15
2023-05-06T11:37:02.367Z,6.78
2023-05-06T11:39:39.964Z,6.40
2023-05-06T11:42:09.706Z,8.60
2023-05-06T11:44:39.489Z,7.28
2023-05-06T11:47:09.748Z,5.57
2023-05-06T11:49:42.471Z,7.57
2023-05-06T11:52:12.458Z,6.22
2023-05-06T11:54:43.368Z,7.72
2023-05-06T11:57:12.241Z,4.45
2023-05-06T11:59:41.735Z,6.85
2023-05-06T12:02:12.786Z,7.40
2023-05-06T12:04:43.045Z,6.63
2023-05-06T12:07:13.123Z,8.38
2023-05-06T12:09:44.511Z,6.95
2023-05-06T12:12:16.203Z,8.10
2023-05-06T12:14:45.855Z,9.25
2023-05-06T12:17:14.839Z,7.43
2023-05-06T12:19:43.486Z,8.35
2023-05-06T12:22:20.333Z,9.93
2023-05-06T12:24:50.581Z,8.63
2023-05-06T12:27:32.740Z,9.88
2023-05-06T12:30:02.591Z,13.80
2023-05-06T12:32:32.138Z,8.35
2023-05-06T12:35:05.685Z,6.13
2023-05-06T12:37:34.467Z,8.77
2023-05-06T12:40:05.052Z,8.75
2023-05-06T12:42:33.674Z,11.80
2023-05-06T12:45:14.715Z,14.35
2023-05-06T12:47:53.588Z,10.15
2023-05-06T12:50:36.175Z,13.20
2023-05-06T12:53:05.771Z,9.67
2023-05-06T12:55:37.316Z,11.53
2023-05-06T12:58:16.105Z,9.00
2023-05-06T13:00:44.661Z,8.60
2023-05-06T13:03:14.529Z,10.43
2023-05-06T13:05:43.154Z,6.53
2023-05-06T13:08:11.738Z,7.90
2023-05-06T13:10:41.601Z,8.63
2023-05-06T13:13:10.234Z,7.33
2023-05-06T13:15:39.125Z,7.97
2023-05-06T13:18:07.826Z,6.87
2023-05-06T13:20:36.583Z,7.40
2023-05-06T13:23:05.142Z,5.30
2023-05-06T13:25:33.730Z,6.78
2023-05-06T13:28:03.689Z,5.35
2023-05-06T13:30:32.389Z,8.77
2023-05-06T13:33:01.171Z,4.60
2023-05-06T13:35:30.462Z,4.25
2023-05-06T13:37:59.002Z,4.60
2023-05-06T13:40:27.611Z,6.20
2023-05-06T13:42:56.507Z,5.75
2023-05-06T13:45:26.664Z,4.03
2023-05-06T13:47:55.306Z,5.65
2023-05-06T13:50:23.877Z,6.82
2023-05-06T13:52:52.397Z,6.88
2023-05-06T13:55:20.985Z,4.68
2023-05-06T13:57:49.533Z,3.78
2023-05-06T14:00:18.376Z,2.67
2023-05-06T14:02:48.274Z,4.10
2023-05-06T14:05:17.140Z,3.30
2023-05-06T14:07:45.730Z,4.60
2023-05-06T14:10:15.282Z,4.70
2023-05-06T14:12:43.967Z,3.78
2023-05-06T14:15:14.728Z,8.07
2023-05-06T14:17:43.653Z,4.00
2023-05-06T14:20:13.994Z,8.98
2023-05-06T14:22:43.084Z,1.90
2023-05-06T14:25:12.307Z,2.00
2023-05-06T14:27:41.095Z,4.95
2023-05-06T14:30:10.420Z,4.35
2023-05-06T14:32:38.999Z,4.35
2023-05-06T14:35:09.175Z,2.47
2023-05-06T14:37:39.432Z,2.35
2023-05-06T14:40:10.068Z,3.95
2023-05-06T14:42:38.835Z,3.15
2023-05-06T14:45:08.640Z,4.85
2023-05-06T14:47:37.323Z,5.78
2023-05-06T14:50:08.942Z,2.75
2023-05-06T14:52:39.448Z,4.18
2023-05-06T14:55:10.661Z,4.47
2023-05-06T14:57:39.492Z,2.40
2023-05-06T15:00:10.192Z,2.83
2023-05-06T15:02:40.748Z,4.45
2023-05-06T15:05:10.694Z,3.05
2023-05-06T15:07:41.081Z,4.47
2023-05-06T15:10:10.363Z,2.78
2023-05-06T15:12:39.006Z,5.05
2023-05-06T15:15:09.310Z,2.50
2023-05-06T15:17:39.361Z,2.90
2023-05-06T15:20:09.647Z,2.47
2023-05-06T15:22:39.747Z,3.88
2023-05-06T15:25:19.451Z,5.90
2023-05-06T15:27:54.974Z,3.33
2023-05-06T15:30:23.547Z,4.17
2023-05-06T15:32:52.068Z,3.77
2023-05-06T15:35:20.773Z,4.50
2023-05-06T15:37:49.395Z,2.40
2023-05-06T15:40:21.468Z,6.20
2023-05-06T15:42:50.063Z,3.83
2023-05-06T15:45:19.622Z,8.17
2023-05-06T15:47:48.602Z,3.23
2023-05-06T15:50:31.941Z,3.87
2023-05-06T15:53:02.590Z,4.07
2023-05-06T15:55:42.376Z,4.60
2023-05-06T15:58:13.848Z,4.57
2023-05-06T16:00:42.557Z,5.70
2023-05-06T16:03:12.427Z,2.90
2023-05-06T16:05:41.508Z,3.57
2023-05-06T16:08:10.094Z,2.27
2023-05-06T16:10:40.038Z,2.13
2023-05-06T16:13:08.662Z,4.60
2023-05-06T16:15:37.222Z,5.80
2023-05-06T16:18:06.063Z,2.43
2023-05-06T16:20:34.625Z,2.23
2023-05-06T16:23:03.314Z,5.60
2023-05-06T16:25:31.871Z,5.33
2023-05-06T16:28:01.781Z,4.70
2023-05-06T16:30:30.344Z,3.43
2023-05-06T16:32:59.034Z,4.07
2023-05-06T16:35:27.636Z,2.87
2023-05-06T16:37:56.408Z,3.27
2023-05-06T16:40:25.701Z,3.87
2023-05-06T16:42:54.292Z,4.60
2023-05-06T16:45:24.169Z,6.63
2023-05-06T16:47:52.904Z,2.40
2023-05-06T16:50:21.626Z,5.50
2023-05-06T16:52:50.178Z,4.03
2023-05-06T16:55:18.813Z,2.97
2023-05-06T16:57:47.330Z,4.40
2023-05-06T17:00:16.814Z,6.20
2023-05-06T17:02:46.862Z,5.90
2023-05-06T17:05:16.458Z,3.77
2023-05-06T17:07:45.001Z,2.27
2023-05-06T17:10:13.614Z,5.63
2023-05-06T17:12:42.963Z,7.80
2023-05-06T17:15:12.448Z,12.83
2023-05-06T17:17:41.057Z,10.70
2023-05-06T17:20:11.977Z,6.53
2023-05-06T17:22:40.907Z,4.73
2023-05-06T17:25:10.294Z,7.00
2023-05-06T17:27:38.788Z,6.17
2023-05-06T17:30:09.585Z,3.43
2023-05-06T17:32:38.481Z,9.30
2023-05-06T17:35:07.820Z,4.03
2023-05-06T17:37:37.835Z,8.13
2023-05-06T17:40:08.132Z,2.87
2023-05-06T17:42:36.764Z,3.73
2023-05-06T17:45:06.305Z,2.93
2023-05-06T17:47:35.961Z,4.63
2023-05-06T17:50:04.958Z,3.83
2023-05-06T17:52:33.630Z,6.00
2023-05-06T17:55:15.597Z,7.57
2023-05-06T17:57:45.405Z,5.53
2023-05-06T18:00:16.345Z,5.60
2023-05-06T18:02:45.456Z,3.20
2023-05-06T18:05:14.228Z,6.33
2023-05-06T18:07:42.807Z,5.63
2023-05-06T18:10:13.064Z,5.13
2023-05-06T18:12:41.642Z,4.40
2023-05-06T18:15:11.357Z,5.73
2023-05-06T18:17:40.561Z,8.37
2023-05-06T18:20:10.211Z,7.50
2023-05-06T18:22:39.626Z,11.63
2023-05-06T18:25:09.288Z,7.90
2023-05-06T18:27:39.389Z,12.73
2023-05-06T18:30:08.931Z,8.17
2023-05-06T18:32:37.511Z,8.20
2023-05-06T18:35:06.656Z,11.10
2023-05-06T18:37:35.465Z,15.13
2023-05-06T18:40:04.504Z,14.13
2023-05-06T18:42:33.946Z,12.40
2023-05-06T18:45:06.950Z,11.97
2023-05-06T18:47:36.905Z,13.33
2023-05-06T18:50:05.938Z,13.60
2023-05-06T18:52:36.076Z,11.13
2023-05-06T18:55:05.061Z,13.70
2023-05-06T18:57:33.630Z,13.63
2023-05-06T19:00:02.173Z,13.30
2023-05-06T19:02:32.449Z,13.47
2023-05-06T19:05:01.303Z,10.30
2023-05-06T19:07:29.873Z,10.67
2023-05-06T19:09:58.551Z,9.33
2023-05-06T19:12:27.221Z,11.10
2023-05-06T19:14:55.818Z,11.80
2023-05-06T19:17:24.520Z,15.37
2023-05-06T19:19:54.523Z,16.93
2023-05-06T19:22:23.335Z,11.53
2023-05-06T19:24:52.873Z,15.10
2023-05-06T19:27:21.552Z,16.17
2023-05-06T19:29:50.158Z,14.40
2023-05-06T19:32:18.749Z,15.30
2023-05-06T19:34:47.300Z,18.83
2023-05-06T19:37:17.205Z,16.63
2023-05-06T19:39:46.381Z,18.13
2023-05-06T19:42:15.166Z,15.03
2023-05-06T19:44:43.718Z,14.90
2023-05-06T19:47:13.209Z,17.37
2023-05-06T19:49:41.746Z,15.03
2023-05-06T19:52:10.342Z,13.80
2023-05-06T19:54:40.428Z,17.17
2023-05-06T19:57:08.987Z,19.97
2023-05-06T19:59:37.508Z,14.97
2023-05-06T20:02:06.181Z,13.37
2023-05-06T20:04:34.724Z,14.70
2023-05-06T20:07:03.242Z,17.30
2023-05-06T20:09:31.792Z,20.50
2023-05-06T20:12:02.523Z,15.57
2023-05-06T20:14:31.422Z,16.23
2023-05-06T20:17:02.446Z,20.30
2023-05-06T20:19:31.312Z,21.70
2023-05-06T20:22:00.531Z,13.07
2023-05-06T20:24:30.469Z,14.43
2023-05-06T20:27:00.868Z,15.37
2023-05-06T20:29:29.541Z,16.67
2023-05-06T20:31:58.188Z,15.70
2023-05-06T20:34:26.889Z,15.60
2023-05-06T20:36:56.155Z,16.30
2023-05-06T20:39:25.084Z,18.90
2023-05-06T20:41:53.795Z,22.07
2023-05-06T20:44:25.134Z,19.07
2023-05-06T20:46:53.783Z,19.10
2023-05-06T20:49:22.924Z,21.00
2023-05-06T20:51:51.521Z,24.40
2023-05-06T20:54:20.095Z,17.53
2023-05-06T20:56:48.645Z,15.60
2023-05-06T20:59:17.315Z,19.47
2023-05-06T21:01:47.398Z,18.03
2023-05-06T21:04:17.745Z,19.67
2023-05-06T21:06:46.430Z,16.43
2023-05-06T21:09:15.083Z,16.67
2023-05-06T21:11:43.736Z,17.10
2023-05-06T21:14:12.294Z,16.73
2023-05-06T21:16:41.656Z,14.53
2023-05-06T21:19:11.640Z,14.13
2023-05-06T21:21:40.375Z,16.47
2023-05-06T21:24:09.016Z,16.83
2023-05-06T21:26:37.545Z,19.90
2023-05-06T21:29:06.090Z,18.10
2023-05-06T21:31:34.817Z,14.87
2023-05-06T21:34:04.154Z,15.83
2023-05-06T21:36:34.538Z,13.97
2023-05-06T21:39:07.974Z,12.93
2023-05-06T21:41:37.185Z,14.83
2023-05-06T21:44:07.133Z,15.00
2023-05-06T21:46:36.803Z,10.13
2023-05-06T21:49:05.733Z,10.93
2023-05-06T21:51:36.891Z,13.73
2023-05-06T21:54:05.515Z,14.07
2023-05-06T21:56:34.041Z,11.47
2023-05-06T21:59:02.709Z,12.73
2023-05-06T22:01:32.018Z,13.07
2023-05-06T22:04:00.706Z,18.00
2023-05-06T22:06:29.397Z,15.00
2023-05-06T22:08:59.393Z,12.97
2023-05-06T22:11:27.927Z,13.57
2023-05-06T22:13:56.476Z,14.37
2023-05-06T22:16:25.644Z,11.43
2023-05-06T22:18:54.266Z,14.00
2023-05-06T22:21:23.209Z,16.30
2023-05-06T22:23:51.745Z,13.80
2023-05-06T22:26:22.202Z,14.77
2023-05-06T22:28:50.944Z,12.00
2023-05-06T22:31:21.021Z,16.03
2023-05-06T22:33:54.324Z,12.20
2023-05-06T22:36:22.895Z,13.87
2023-05-06T22:38:51.493Z,14.53
2023-05-06T22:41:21.978Z,11.07
2023-05-06T22:43:50.670Z,12.90
2023-05-06T22:46:19.644Z,14.77
2023-05-06T22:48:48.206Z,15.33
2023-05-06T22:51:16.969Z,12.57
2023-05-06T22:53:46.085Z,16.57
2023-05-06T22:56:14.714Z,12.47
2023-05-06T22:58:45.040Z,14.17
2023-05-06T23:01:13.834Z,11.20
2023-05-06T23:03:42.444Z,19.43
2023-05-06T23:06:11.544Z,14.00
2023-05-06T23:08:40.194Z,14.80
2023-05-06T23:11:08.801Z,13.83
2023-05-06T23:13:37.360Z,11.03
2023-05-06T23:16:10.205Z,18.40
2023-05-06T23:18:38.781Z,12.70
2023-05-06T23:21:07.496Z,15.53
2023-05-06T23:23:36.093Z,13.67
2023-05-06T23:26:04.655Z,15.53
2023-05-06T23:28:33.261Z,14.90
2023-05-06T23:31:01.925Z,12.50
2023-05-06T23:33:31.917Z,12.87
2023-05-06T23:36:02.346Z,18.93
2023-05-06T23:38:30.866Z,15.90
2023-05-06T23:40:59.410Z,13.93
2023-05-06T23:43:28.064Z,14.10
2023-05-06T23:45:56.607Z,13.20
2023-05-06T23:48:25.280Z,12.77
2023-05-06T23:50:55.352Z,17.70
2023-05-06T23:53:23.973Z,13.90
2023-05-06T23:55:52.511Z,15.73
2023-05-06T23:58:21.061Z,14.17
